Time;durP1;ratioP1;P1;durP2;ratioP2;P2;SDS_P1;SDS_P2;PMS_P1;PMS_P2;Temp;Humidity;BMP_temperature;BMP_pressure;BME280_temperature;BME280_humidity;BME280_pressure;Samples;Min_cycle;Max_cycle;Signal;HPM_P1;HPM_P2
2023/12/05 00:00:56;;;;;;;0.20;0.20;;;;;;;;;;5072683;28;20260;-78
2023/12/05 00:03:23;;;;;;;0.30;0.30;;;;;;;;;;5082456;28;20211;-79
2023/12/05 00:05:49;;;;;;;0.30;0.30;;;;;;;;;;5072443;28;20256;-79
2023/12/05 00:08:17;;;;;;;0.30;0.30;;;;;;;;;;5081623;28;20215;-79
2023/12/05 00:10:53;;;;;;;0.20;0.20;;;;;;;;;;5072541;28;20245;-79
2023/12/05 00:13:19;;;;;;;0.20;0.20;;;;;;;;;;5082869;28;20206;-79
2023/12/05 00:15:45;;;;;;;0.30;0.30;;;;;;;;;;5072588;28;20304;-79
2023/12/05 00:18:13;;;;;;;0.30;0.30;;;;;;;;;;5082692;28;20204;-78
2023/12/05 00:20:40;;;;;;;0.30;0.30;;;;;;;;;;5072457;28;20275;-79
2023/12/05 00:23:06;;;;;;;0.30;0.30;;;;;;;;;;5082627;28;20207;-79
2023/12/05 00:25:32;;;;;;;0.30;0.30;;;;;;;;;;5072159;28;20246;-79
2023/12/05 00:27:59;;;;;;;0.30;0.30;;;;;;;;;;5082124;28;20264;-78
2023/12/05 00:30:25;;;;;;;0.30;0.30;;;;;;;;;;5072556;28;20230;-79
2023/12/05 00:32:52;;;;;;;0.30;0.30;;;;;;;;;;5082398;28;20382;-79
2023/12/05 00:35:19;;;;;;;0.30;0.30;;;;;;;;;;5072670;28;20207;-79
2023/12/05 00:37:46;;;;;;;0.30;0.30;;;;;;;;;;5082089;28;20397;-79
2023/12/05 00:40:13;;;;;;;0.30;0.30;;;;;;;;;;5072700;28;20220;-79
2023/12/05 00:42:39;;;;;;;0.20;0.20;;;;;;;;;;5085426;28;20258;-79
2023/12/05 00:45:06;;;;;;;0.30;0.30;;;;;;;;;;5086744;28;20274;-79
2023/12/05 00:47:33;;;;;;;0.20;0.20;;;;;;;;;;5074853;28;20272;-78
2023/12/05 00:49:59;;;;;;;0.20;0.20;;;;;;;;;;5086508;28;20203;-78
2023/12/05 00:52:27;;;;;;;0.30;0.30;;;;;;;;;;5074747;28;20243;-77
2023/12/05 00:54:53;;;;;;;0.30;0.30;;;;;;;;;;5086527;28;20248;-79
2023/12/05 00:57:20;;;;;;;0.20;0.20;;;;;;;;;;5074764;28;20244;-78
2023/12/05 00:59:46;;;;;;;0.20;0.20;;;;;;;;;;5086418;28;20201;-79
2023/12/05 01:02:13;;;;;;;0.30;0.30;;;;;;;;;;5074601;28;20238;-78
2023/12/05 01:04:39;;;;;;;0.30;0.30;;;;;;;;;;5086276;28;20207;-79
2023/12/05 01:07:05;;;;;;;0.30;0.30;;;;;;;;;;5074564;28;20253;-79
2023/12/05 01:09:33;;;;;;;0.30;0.30;;;;;;;;;;5086082;28;20247;-79
2023/12/05 01:12:00;;;;;;;0.30;0.30;;;;;;;;;;5074541;28;20246;-79
2023/12/05 01:14:26;;;;;;;0.30;0.30;;;;;;;;;;5086080;28;20275;-79
2023/12/05 01:16:52;;;;;;;0.30;0.30;;;;;;;;;;5074529;28;20309;-79
2023/12/05 01:19:19;;;;;;;0.30;0.30;;;;;;;;;;5085657;28;20243;-79
2023/12/05 01:21:45;;;;;;;0.30;0.30;;;;;;;;;;5074484;28;20239;-79
2023/12/05 01:24:12;;;;;;;0.30;0.30;;;;;;;;;;5085428;28;20202;-80
2023/12/05 01:26:39;;;;;;;0.30;0.30;;;;;;;;;;5074595;28;20266;-79
2023/12/05 01:29:06;;;;;;;0.20;0.20;;;;;;;;;;5085385;28;20241;-79
2023/12/05 01:31:32;;;;;;;0.30;0.30;;;;;;;;;;5074238;28;20351;-78
2023/12/05 01:33:59;;;;;;;0.30;0.30;;;;;;;;;;5085548;28;20236;-79
2023/12/05 01:36:26;;;;;;;0.30;0.30;;;;;;;;;;5074456;28;20301;-79
2023/12/05 01:38:53;;;;;;;0.30;0.30;;;;;;;;;;5085211;28;20209;-79
2023/12/05 01:41:19;;;;;;;0.30;0.30;;;;;;;;;;5074131;28;20301;-79
2023/12/05 01:43:47;;;;;;;0.30;0.30;;;;;;;;;;5085022;28;20196;-79
2023/12/05 01:46:14;;;;;;;0.30;0.30;;;;;;;;;;5074419;28;20239;-79
2023/12/05 01:48:40;;;;;;;0.33;0.33;;;;;;;;;;5084783;28;20196;-79
2023/12/05 01:51:07;;;;;;;0.30;0.30;;;;;;;;;;5074444;28;20241;-79
2023/12/05 01:53:35;;;;;;;0.30;0.30;;;;;;;;;;5084100;28;20270;-79
2023/12/05 01:56:02;;;;;;;0.27;0.27;;;;;;;;;;5074381;28;20260;-78
2023/12/05 01:58:29;;;;;;;0.30;0.30;;;;;;;;;;5084798;28;20212;-79
2023/12/05 02:00:57;;;;;;;0.30;0.30;;;;;;;;;;5074382;28;20313;-78
2023/12/05 02:03:23;;;;;;;0.30;0.30;;;;;;;;;;5084442;28;20426;-80
2023/12/05 02:05:50;;;;;;;0.30;0.30;;;;;;;;;;5074355;28;20245;-79
2023/12/05 02:08:17;;;;;;;0.30;0.30;;;;;;;;;;5084233;28;20205;-79
2023/12/05 02:10:53;;;;;;;0.30;0.30;;;;;;;;;;5074089;28;20235;-79
2023/12/05 02:13:22;;;;;;;0.30;0.30;;;;;;;;;;5084233;28;20395;-79
2023/12/05 02:15:54;;;;;;;0.30;0.30;;;;;;;;;;5074000;28;20452;-80
2023/12/05 02:18:24;;;;;;;0.30;0.30;;;;;;;;;;5084380;28;20463;-78
2023/12/05 02:20:52;;;;;;;0.30;0.30;;;;;;;;;;5074061;28;20251;-79
2023/12/05 02:23:36;;;;;;;0.30;0.30;;;;;;;;;;5084259;28;20356;-79
2023/12/05 02:26:09;;;;;;;0.30;0.30;;;;;;;;;;5073172;28;20240;-79
2023/12/05 02:28:37;;;;;;;0.30;0.30;;;;;;;;;;5083970;28;20200;-78
2023/12/05 02:31:03;;;;;;;0.30;0.30;;;;;;;;;;5073473;28;20487;-79
2023/12/05 02:33:30;;;;;;;0.30;0.30;;;;;;;;;;5083790;28;20207;-79
2023/12/05 02:36:02;;;;;;;0.33;0.33;;;;;;;;;;5073601;28;20570;-79
2023/12/05 02:38:31;;;;;;;0.30;0.30;;;;;;;;;;5084235;28;20435;-79
2023/12/05 02:41:01;;;;;;;0.20;0.20;;;;;;;;;;5073486;28;20231;-79
2023/12/05 02:43:32;;;;;;;0.30;0.30;;;;;;;;;;5083727;28;20188;-80
2023/12/05 02:46:00;;;;;;;0.30;0.30;;;;;;;;;;5073371;28;20296;-79
2023/12/05 02:48:27;;;;;;;0.30;0.30;;;;;;;;;;5083488;28;20451;-79
2023/12/05 02:50:54;;;;;;;0.30;0.30;;;;;;;;;;5073367;28;20272;-79
2023/12/05 02:53:20;;;;;;;0.30;0.30;;;;;;;;;;5083729;28;20249;-79
2023/12/05 02:55:48;;;;;;;0.23;0.23;;;;;;;;;;5073351;28;20240;-79
2023/12/05 02:58:14;;;;;;;0.27;0.27;;;;;;;;;;5083272;28;20276;-79
2023/12/05 03:00:41;;;;;;;0.20;0.20;;;;;;;;;;5073400;28;20249;-79
2023/12/05 03:03:09;;;;;;;0.30;0.30;;;;;;;;;;5083131;28;20278;-79
2023/12/05 03:05:36;;;;;;;0.30;0.30;;;;;;;;;;5073198;28;20246;-79
2023/12/05 03:08:02;;;;;;;0.30;0.30;;;;;;;;;;5083141;28;20292;-78
2023/12/05 03:10:28;;;;;;;0.30;0.30;;;;;;;;;;5073232;28;20236;-78
2023/12/05 03:12:55;;;;;;;0.30;0.30;;;;;;;;;;5083038;28;20186;-78
2023/12/05 03:15:21;;;;;;;0.30;0.30;;;;;;;;;;5073400;28;20232;-79
2023/12/05 03:17:47;;;;;;;0.30;0.30;;;;;;;;;;5083268;28;20193;-79
2023/12/05 03:20:15;;;;;;;0.30;0.30;;;;;;;;;;5073443;28;20274;-78
2023/12/05 03:22:42;;;;;;;0.30;0.30;;;;;;;;;;5083115;28;20425;-79
2023/12/05 03:25:09;;;;;;;0.30;0.30;;;;;;;;;;5083964;28;20210;-79
2023/12/05 03:27:36;;;;;;;0.30;0.30;;;;;;;;;;5055659;28;20207;-78
2023/12/05 03:30:03;;;;;;;0.30;0.30;;;;;;;;;;5083658;28;20304;-79
2023/12/05 03:32:29;;;;;;;0.30;0.30;;;;;;;;;;5071845;28;20272;-79
2023/12/05 03:34:56;;;;;;;0.30;0.30;;;;;;;;;;5083687;28;20247;-79
2023/12/05 03:37:23;;;;;;;0.20;0.20;;;;;;;;;;5072062;28;20244;-79
2023/12/05 03:39:50;;;;;;;0.30;0.30;;;;;;;;;;5083680;28;20227;-79
2023/12/05 03:42:16;;;;;;;0.30;0.30;;;;;;;;;;5071826;28;20266;-80
2023/12/05 03:44:42;;;;;;;0.30;0.30;;;;;;;;;;5083584;28;20384;-78
2023/12/05 03:47:09;;;;;;;0.30;0.30;;;;;;;;;;5071906;28;20502;-79
2023/12/05 03:49:35;;;;;;;0.30;0.30;;;;;;;;;;5083576;28;20360;-79
2023/12/05 03:52:02;;;;;;;0.30;0.30;;;;;;;;;;5071778;28;20244;-79
2023/12/05 03:54:29;;;;;;;0.30;0.30;;;;;;;;;;5083540;28;20208;-79
2023/12/05 03:56:56;;;;;;;0.30;0.30;;;;;;;;;;5072018;28;20286;-78
2023/12/05 03:59:22;;;;;;;0.20;0.20;;;;;;;;;;5083144;28;20268;-79
2023/12/05 04:01:49;;;;;;;0.30;0.30;;;;;;;;;;5071984;28;20509;-79
2023/12/05 04:04:15;;;;;;;0.30;0.30;;;;;;;;;;5082976;28;20278;-79
2023/12/05 04:06:41;;;;;;;0.30;0.30;;;;;;;;;;5071837;28;20267;-79
2023/12/05 04:09:08;;;;;;;0.30;0.30;;;;;;;;;;5082841;28;20288;-79
2023/12/05 04:11:36;;;;;;;0.20;0.20;;;;;;;;;;5071930;28;20233;-79
2023/12/05 04:14:02;;;;;;;0.30;0.30;;;;;;;;;;5083193;28;20213;-79
2023/12/05 04:16:28;;;;;;;0.30;0.30;;;;;;;;;;5074293;28;20264;-79
2023/12/05 04:18:55;;;;;;;0.30;0.30;;;;;;;;;;5086591;28;20231;-78
2023/12/05 04:21:22;;;;;;;0.30;0.30;;;;;;;;;;5075725;28;20259;-78
2023/12/05 04:23:48;;;;;;;0.30;0.30;;;;;;;;;;5086534;28;20212;-79
2023/12/05 04:26:15;;;;;;;0.30;0.30;;;;;;;;;;5075967;28;20249;-79
2023/12/05 04:28:43;;;;;;;0.30;0.30;;;;;;;;;;5086389;28;20248;-79
2023/12/05 04:31:09;;;;;;;0.30;0.30;;;;;;;;;;5075940;28;20235;-78
2023/12/05 04:33:36;;;;;;;0.30;0.30;;;;;;;;;;5086158;28;20246;-79
2023/12/05 04:36:02;;;;;;;0.30;0.30;;;;;;;;;;5075574;28;20244;-79
2023/12/05 04:38:29;;;;;;;0.30;0.30;;;;;;;;;;5086405;28;20240;-79
2023/12/05 04:40:55;;;;;;;0.30;0.30;;;;;;;;;;5075964;28;20241;-79
2023/12/05 04:43:22;;;;;;;0.30;0.30;;;;;;;;;;5086094;28;20203;-79
2023/12/05 04:45:50;;;;;;;0.30;0.30;;;;;;;;;;5075643;28;20445;-78
2023/12/05 04:48:16;;;;;;;0.30;0.30;;;;;;;;;;5085873;28;20207;-79
2023/12/05 04:50:44;;;;;;;0.30;0.30;;;;;;;;;;5075733;28;20300;-78
2023/12/05 04:53:10;;;;;;;0.30;0.30;;;;;;;;;;5085929;28;20292;-79
2023/12/05 04:55:36;;;;;;;0.30;0.30;;;;;;;;;;5075731;28;20254;-78
2023/12/05 04:58:03;;;;;;;0.30;0.30;;;;;;;;;;5085366;28;20219;-79
2023/12/05 05:00:29;;;;;;;0.30;0.30;;;;;;;;;;5075848;28;20302;-78
2023/12/05 05:02:57;;;;;;;0.30;0.30;;;;;;;;;;5085132;28;20208;-77
2023/12/05 05:05:23;;;;;;;0.30;0.30;;;;;;;;;;5075422;28;20238;-79
2023/12/05 05:07:50;;;;;;;0.30;0.30;;;;;;;;;;5085651;28;20194;-79
2023/12/05 05:10:16;;;;;;;0.30;0.30;;;;;;;;;;5075390;28;20241;-80
2023/12/05 05:12:43;;;;;;;0.30;0.30;;;;;;;;;;5085321;28;20217;-79
2023/12/05 05:15:09;;;;;;;0.30;0.30;;;;;;;;;;5081745;28;20245;-78
2023/12/05 05:17:36;;;;;;;0.30;0.30;;;;;;;;;;5084859;28;20215;-79
2023/12/05 05:20:04;;;;;;;0.30;0.30;;;;;;;;;;5086090;28;20255;-79
2023/12/05 05:22:31;;;;;;;0.23;0.23;;;;;;;;;;5074207;28;20578;-79
2023/12/05 05:24:57;;;;;;;0.30;0.30;;;;;;;;;;5085650;28;20209;-78
2023/12/05 05:27:24;;;;;;;0.30;0.30;;;;;;;;;;5072934;28;20521;-78
2023/12/05 05:29:50;;;;;;;0.30;0.30;;;;;;;;;;5085996;28;20196;-79
2023/12/05 05:32:17;;;;;;;0.30;0.30;;;;;;;;;;5074070;28;20233;-79
2023/12/05 05:34:43;;;;;;;0.30;0.30;;;;;;;;;;5085536;28;20205;-79
2023/12/05 05:37:11;;;;;;;0.30;0.30;;;;;;;;;;5074017;28;20249;-78
2023/12/05 05:39:38;;;;;;;0.30;0.30;;;;;;;;;;5085726;28;20264;-79
2023/12/05 05:42:04;;;;;;;0.20;0.20;;;;;;;;;;5073886;28;20240;-79
2023/12/05 05:44:31;;;;;;;0.30;0.30;;;;;;;;;;5085317;28;20213;-79
2023/12/05 05:46:57;;;;;;;0.30;0.30;;;;;;;;;;5073815;28;20325;-78
2023/12/05 05:49:23;;;;;;;0.30;0.30;;;;;;;;;;5084989;28;20266;-77
2023/12/05 05:51:50;;;;;;;0.30;0.30;;;;;;;;;;5073572;28;20233;-79
2023/12/05 05:54:18;;;;;;;0.30;0.30;;;;;;;;;;5085084;28;20252;-78
2023/12/05 05:56:44;;;;;;;0.30;0.30;;;;;;;;;;5073802;28;20345;-79
2023/12/05 05:59:10;;;;;;;0.30;0.30;;;;;;;;;;5085078;28;20270;-79
2023/12/05 06:01:37;;;;;;;0.30;0.30;;;;;;;;;;5073965;28;20279;-79
2023/12/05 06:04:03;;;;;;;0.30;0.30;;;;;;;;;;5084606;28;20218;-79
2023/12/05 06:06:30;;;;;;;0.30;0.30;;;;;;;;;;5073874;28;20326;-78
2023/12/05 06:08:56;;;;;;;0.30;0.30;;;;;;;;;;5084569;28;20203;-79
2023/12/05 06:11:24;;;;;;;0.30;0.30;;;;;;;;;;5073405;28;20246;-79
2023/12/05 06:13:51;;;;;;;0.30;0.30;;;;;;;;;;5084571;28;20197;-79
2023/12/05 06:16:17;;;;;;;0.30;0.30;;;;;;;;;;5073767;28;20302;-79
2023/12/05 06:18:44;;;;;;;0.30;0.30;;;;;;;;;;5067196;28;20413;-79
2023/12/05 06:21:10;;;;;;;0.30;0.30;;;;;;;;;;5073981;28;20446;-79
2023/12/05 06:23:38;;;;;;;0.30;0.30;;;;;;;;;;5084431;28;20205;-79
2023/12/05 06:26:05;;;;;;;0.30;0.30;;;;;;;;;;5074220;28;20243;-79
2023/12/05 06:28:32;;;;;;;0.30;0.30;;;;;;;;;;5084421;28;20204;-83
2023/12/05 06:30:59;;;;;;;0.30;0.30;;;;;;;;;;5073779;28;20511;-83
2023/12/05 06:33:26;;;;;;;0.30;0.30;;;;;;;;;;5084302;28;20226;-78
2023/12/05 06:35:52;;;;;;;0.30;0.30;;;;;;;;;;5073802;28;20261;-80
2023/12/05 06:38:18;;;;;;;0.30;0.30;;;;;;;;;;5083643;28;20196;-82
2023/12/05 06:40:45;;;;;;;0.30;0.30;;;;;;;;;;5073733;28;20520;-82
2023/12/05 06:43:11;;;;;;;0.30;0.30;;;;;;;;;;5084178;28;20226;-82
2023/12/05 06:45:39;;;;;;;0.30;0.30;;;;;;;;;;5073812;28;20256;-83
2023/12/05 06:48:06;;;;;;;0.30;0.30;;;;;;;;;;5083652;28;20194;-80
2023/12/05 06:50:32;;;;;;;0.30;0.30;;;;;;;;;;5073885;28;20251;-82
2023/12/05 06:52:59;;;;;;;0.30;0.30;;;;;;;;;;5083970;28;20422;-82
2023/12/05 06:55:26;;;;;;;0.30;0.30;;;;;;;;;;5073861;28;20206;-81
2023/12/05 06:57:52;;;;;;;0.30;0.30;;;;;;;;;;5083964;28;20427;-82
2023/12/05 07:00:19;;;;;;;0.30;0.30;;;;;;;;;;5073414;28;20219;-82
2023/12/05 07:02:47;;;;;;;0.30;0.30;;;;;;;;;;5083397;28;20207;-81
2023/12/05 07:05:14;;;;;;;0.30;0.30;;;;;;;;;;5073861;28;20421;-81
2023/12/05 07:07:40;;;;;;;0.20;0.20;;;;;;;;;;5083126;28;20196;-82
2023/12/05 07:10:08;;;;;;;0.30;0.30;;;;;;;;;;5084022;28;20203;-81
2023/12/05 07:12:34;;;;;;;0.30;0.30;;;;;;;;;;5072435;28;20245;-82
2023/12/05 07:15:00;;;;;;;0.30;0.30;;;;;;;;;;5083998;28;20244;-82
2023/12/05 07:17:26;;;;;;;0.30;0.30;;;;;;;;;;5072219;28;20553;-82
2023/12/05 07:19:54;;;;;;;0.30;0.30;;;;;;;;;;5084155;28;20218;-82
2023/12/05 07:22:20;;;;;;;0.30;0.30;;;;;;;;;;5072698;28;20251;-82
2023/12/05 07:24:47;;;;;;;0.30;0.30;;;;;;;;;;5084139;28;20204;-83
2023/12/05 07:27:13;;;;;;;0.30;0.30;;;;;;;;;;5072283;28;20249;-82
2023/12/05 07:29:40;;;;;;;0.30;0.30;;;;;;;;;;5084114;28;20254;-81
2023/12/05 07:32:06;;;;;;;0.30;0.30;;;;;;;;;;5072193;28;20253;-82
2023/12/05 07:34:32;;;;;;;0.30;0.30;;;;;;;;;;5083798;28;20202;-82
2023/12/05 07:37:00;;;;;;;0.27;0.27;;;;;;;;;;5072456;28;20461;-82
2023/12/05 07:39:27;;;;;;;0.30;0.30;;;;;;;;;;5083546;28;20269;-81
2023/12/05 07:41:53;;;;;;;0.30;0.30;;;;;;;;;;5072245;28;20268;-81
2023/12/05 07:44:20;;;;;;;0.30;0.30;;;;;;;;;;5083674;28;20206;-82
2023/12/05 07:46:46;;;;;;;0.30;0.30;;;;;;;;;;5072351;28;20243;-83
2023/12/05 07:49:12;;;;;;;0.30;0.30;;;;;;;;;;5083562;28;20229;-81
2023/12/05 07:51:39;;;;;;;0.30;0.30;;;;;;;;;;5074880;28;20310;-82
2023/12/05 07:54:07;;;;;;;0.30;0.30;;;;;;;;;;5087381;28;20274;-80
2023/12/05 07:56:33;;;;;;;0.30;0.30;;;;;;;;;;5076560;28;20442;-81
2023/12/05 07:58:59;;;;;;;0.30;0.30;;;;;;;;;;5087399;28;20205;-82
2023/12/05 08:01:26;;;;;;;0.27;0.27;;;;;;;;;;5076318;28;20239;-82
2023/12/05 08:03:53;;;;;;;0.30;0.30;;;;;;;;;;5086981;28;20207;-82
2023/12/05 08:06:20;;;;;;;0.20;0.20;;;;;;;;;;5076410;28;20245;-80
2023/12/05 08:08:46;;;;;;;0.30;0.30;;;;;;;;;;5086884;28;20270;-82
2023/12/05 08:11:14;;;;;;;0.30;0.30;;;;;;;;;;5076131;28;20249;-81
2023/12/05 08:13:40;;;;;;;0.30;0.30;;;;;;;;;;5086733;28;20269;-81
2023/12/05 08:16:07;;;;;;;0.30;0.30;;;;;;;;;;5076225;28;20250;-81
2023/12/05 08:18:34;;;;;;;0.30;0.30;;;;;;;;;;5086740;28;20203;-81
2023/12/05 08:21:01;;;;;;;0.30;0.30;;;;;;;;;;5076041;28;20242;-80
2023/12/05 08:23:27;;;;;;;0.30;0.30;;;;;;;;;;5086429;28;20204;-80
2023/12/05 08:25:53;;;;;;;0.30;0.30;;;;;;;;;;5076035;28;20258;-81
2023/12/05 08:28:21;;;;;;;0.30;0.30;;;;;;;;;;5086293;28;20206;-80
2023/12/05 08:30:47;;;;;;;0.20;0.20;;;;;;;;;;5076010;28;20246;-81
2023/12/05 08:33:14;;;;;;;0.20;0.20;;;;;;;;;;5086066;28;20252;-81
2023/12/05 08:35:40;;;;;;;0.20;0.20;;;;;;;;;;5076022;28;20242;-81
2023/12/05 08:38:07;;;;;;;0.30;0.30;;;;;;;;;;5086040;28;20203;-81
2023/12/05 08:40:34;;;;;;;0.30;0.30;;;;;;;;;;5076126;28;20284;-81
2023/12/05 08:43:00;;;;;;;0.30;0.30;;;;;;;;;;5086054;28;20191;-81
2023/12/05 08:45:28;;;;;;;0.30;0.30;;;;;;;;;;5076017;28;20408;-80
2023/12/05 08:47:54;;;;;;;0.30;0.30;;;;;;;;;;5085855;28;20205;-81
2023/12/05 08:50:21;;;;;;;0.30;0.30;;;;;;;;;;5075770;28;20199;-81
2023/12/05 08:52:47;;;;;;;0.20;0.20;;;;;;;;;;5085526;28;20234;-81
2023/12/05 08:55:14;;;;;;;0.20;0.20;;;;;;;;;;5076117;28;20211;-80
2023/12/05 08:57:41;;;;;;;0.30;0.30;;;;;;;;;;5085439;28;20256;-81
2023/12/05 09:00:09;;;;;;;0.30;0.30;;;;;;;;;;5086435;28;20456;-80
2023/12/05 09:02:36;;;;;;;0.20;0.20;;;;;;;;;;5057769;28;20285;-81
2023/12/05 09:05:04;;;;;;;0.20;0.20;;;;;;;;;;5086501;28;20216;-81
2023/12/05 09:07:30;;;;;;;0.30;0.30;;;;;;;;;;5074703;28;20288;-81
2023/12/05 09:09:57;;;;;;;0.30;0.30;;;;;;;;;;5086270;28;20218;-80
2023/12/05 09:12:23;;;;;;;0.30;0.30;;;;;;;;;;5074493;28;20243;-80
2023/12/05 09:14:50;;;;;;;0.30;0.30;;;;;;;;;;5086177;28;20206;-81
2023/12/05 09:17:18;;;;;;;0.20;0.20;;;;;;;;;;5074388;28;20375;-81
2023/12/05 09:19:46;;;;;;;0.30;0.30;;;;;;;;;;5086054;28;20206;-82
2023/12/05 09:22:12;;;;;;;0.30;0.30;;;;;;;;;;5074456;28;20257;-81
2023/12/05 09:24:38;;;;;;;0.23;0.23;;;;;;;;;;5086091;28;20207;-82
2023/12/05 09:27:05;;;;;;;0.30;0.30;;;;;;;;;;5074373;28;20439;-81
2023/12/05 09:29:32;;;;;;;0.20;0.20;;;;;;;;;;5085836;28;20216;-82
2023/12/05 09:31:58;;;;;;;0.20;0.20;;;;;;;;;;5074360;28;20332;-82
2023/12/05 09:34:25;;;;;;;0.20;0.20;;;;;;;;;;5085811;28;20261;-83
2023/12/05 09:36:53;;;;;;;0.30;0.30;;;;;;;;;;5074463;28;20253;-83
2023/12/05 09:39:19;;;;;;;0.20;0.20;;;;;;;;;;5085850;28;20205;-83
2023/12/05 09:41:48;;;;;;;0.20;0.20;;;;;;;;;;5074482;28;20248;-85
2023/12/05 09:44:16;;;;;;;0.20;0.20;;;;;;;;;;5086098;28;20222;-84
2023/12/05 09:46:46;;;;;;;0.30;0.30;;;;;;;;;;5074584;28;20256;-85
2023/12/05 09:49:13;;;;;;;0.20;0.20;;;;;;;;;;5085879;28;20186;-85
2023/12/05 09:51:41;;;;;;;0.27;0.27;;;;;;;;;;5074731;28;20238;-85
2023/12/05 09:54:10;;;;;;;0.30;0.30;;;;;;;;;;5085702;28;20293;-85
2023/12/05 09:56:36;;;;;;;0.30;0.30;;;;;;;;;;5074404;28;20556;-84
2023/12/05 09:59:03;;;;;;;0.23;0.23;;;;;;;;;;5085482;28;20218;-84
2023/12/05 10:01:35;;;;;;;0.30;0.30;;;;;;;;;;5074519;28;20249;-85
2023/12/05 10:04:02;;;;;;;0.30;0.30;;;;;;;;;;5085587;28;20252;-86
2023/12/05 10:06:30;;;;;;;0.20;0.20;;;;;;;;;;5074705;28;20453;-85
2023/12/05 10:08:57;;;;;;;0.20;0.20;;;;;;;;;;5085429;28;20198;-85
2023/12/05 10:11:27;;;;;;;0.27;0.27;;;;;;;;;;5074596;28;20253;-85
2023/12/05 10:13:53;;;;;;;0.30;0.30;;;;;;;;;;5084535;28;20480;-85
2023/12/05 10:16:20;;;;;;;0.20;0.20;;;;;;;;;;5074415;28;20242;-84
2023/12/05 10:18:47;;;;;;;0.20;0.20;;;;;;;;;;5085218;28;20222;-86
2023/12/05 10:21:13;;;;;;;0.20;0.20;;;;;;;;;;5074175;28;20242;-85
2023/12/05 10:23:40;;;;;;;0.20;0.20;;;;;;;;;;5084962;28;20234;-86
2023/12/05 10:26:06;;;;;;;0.20;0.20;;;;;;;;;;5074449;28;20265;-86
2023/12/05 10:28:48;;;;;;;0.20;0.20;;;;;;;;;;5085374;28;20206;-86
2023/12/05 10:31:15;;;;;;;0.20;0.20;;;;;;;;;;5074512;28;20265;-86
2023/12/05 10:33:41;;;;;;;0.30;0.30;;;;;;;;;;5085170;28;20546;-86
2023/12/05 10:36:10;;;;;;;0.20;0.20;;;;;;;;;;5073670;28;20239;-84
2023/12/05 10:38:37;;;;;;;0.20;0.20;;;;;;;;;;5084399;28;20218;-85
2023/12/05 10:41:04;;;;;;;0.20;0.20;;;;;;;;;;5073905;28;20246;-85
2023/12/05 10:43:30;;;;;;;0.20;0.20;;;;;;;;;;5084285;28;20236;-84
2023/12/05 10:45:59;;;;;;;0.20;0.20;;;;;;;;;;5073685;28;20248;-84
2023/12/05 10:48:26;;;;;;;0.20;0.20;;;;;;;;;;5084503;28;20274;-85
2023/12/05 10:50:53;;;;;;;0.20;0.20;;;;;;;;;;5073661;28;20298;-85
2023/12/05 10:53:19;;;;;;;0.20;0.20;;;;;;;;;;5084076;28;20424;-84
2023/12/05 10:55:46;;;;;;;0.23;0.23;;;;;;;;;;5073718;28;20250;-84
2023/12/05 10:58:14;;;;;;;0.20;0.20;;;;;;;;;;5083874;28;20198;-83
2023/12/05 11:00:40;;;;;;;0.20;0.20;;;;;;;;;;5073788;28;20492;-84
2023/12/05 11:03:08;;;;;;;0.30;0.30;;;;;;;;;;5083396;28;20246;-84
2023/12/05 11:05:35;;;;;;;0.20;0.20;;;;;;;;;;5073474;28;20250;-83
2023/12/05 11:08:03;;;;;;;0.20;0.20;;;;;;;;;;5083826;28;20387;-84
2023/12/05 11:10:30;;;;;;;0.20;0.20;;;;;;;;;;5073813;28;20255;-84
2023/12/05 11:12:58;;;;;;;0.20;0.20;;;;;;;;;;5083225;28;20210;-85
2023/12/05 11:15:25;;;;;;;0.20;0.20;;;;;;;;;;5073807;28;20209;-85
2023/12/05 11:17:53;;;;;;;0.30;0.30;;;;;;;;;;5083789;28;20191;-86
2023/12/05 11:20:26;;;;;;;0.23;0.23;;;;;;;;;;5073802;28;20234;-85
2023/12/05 11:23:00;;;;;;;0.20;0.20;;;;;;;;;;5083608;28;20260;-86
2023/12/05 11:25:36;;;;;;;0.20;0.20;;;;;;;;;;5073944;28;20258;-85
2023/12/05 11:28:09;;;;;;;0.30;0.30;;;;;;;;;;5083439;28;20201;-84
2023/12/05 11:30:52;;;;;;;0.20;0.20;;;;;;;;;;5073364;28;20265;-84
2023/12/05 11:33:26;;;;;;;0.23;0.23;;;;;;;;;;5083520;28;20450;-84
2023/12/05 11:36:03;;;;;;;0.20;0.20;;;;;;;;;;5073203;28;20570;-84
2023/12/05 11:38:30;;;;;;;0.20;0.20;;;;;;;;;;5083816;28;20533;-84
2023/12/05 11:41:12;;;;;;;0.20;0.20;;;;;;;;;;5073117;28;20492;-83
2023/12/05 11:43:39;;;;;;;0.20;0.20;;;;;;;;;;5083610;28;20199;-85
2023/12/05 11:46:06;;;;;;;0.30;0.30;;;;;;;;;;5074065;28;20246;-85
2023/12/05 11:48:33;;;;;;;0.20;0.20;;;;;;;;;;5085182;28;20263;-85
2023/12/05 11:51:01;;;;;;;0.30;0.30;;;;;;;;;;5074887;28;20484;-84
2023/12/05 11:53:28;;;;;;;0.20;0.20;;;;;;;;;;5086350;28;20233;-83
2023/12/05 11:55:54;;;;;;;0.20;0.20;;;;;;;;;;5074713;28;20247;-84
2023/12/05 11:58:31;;;;;;;0.20;0.20;;;;;;;;;;5085695;28;20226;-85
2023/12/05 12:01:04;;;;;;;0.20;0.20;;;;;;;;;;5075510;28;20251;-86
2023/12/05 12:03:34;;;;;;;0.20;0.20;;;;;;;;;;5091097;28;20213;-86
2023/12/05 12:06:03;;;;;;;0.20;0.20;;;;;;;;;;5079860;28;20238;-85
2023/12/05 12:08:30;;;;;;;0.20;0.20;;;;;;;;;;5090165;28;20211;-86
2023/12/05 12:10:57;;;;;;;0.20;0.20;;;;;;;;;;5077388;28;20295;-86
2023/12/05 12:13:23;;;;;;;0.20;0.20;;;;;;;;;;5090617;28;20206;-84
2023/12/05 12:15:49;;;;;;;0.27;0.27;;;;;;;;;;5081181;28;20269;-85
2023/12/05 12:18:23;;;;;;;0.30;0.30;;;;;;;;;;5092579;28;20214;-84
2023/12/05 12:20:51;;;;;;;0.30;0.30;;;;;;;;;;5079873;28;20284;-85
2023/12/05 12:23:19;;;;;;;0.23;0.23;;;;;;;;;;5090847;28;20258;-85
2023/12/05 12:25:50;;;;;;;0.27;0.27;;;;;;;;;;5079487;28;20246;-84
2023/12/05 12:28:24;;;;;;;0.30;0.30;;;;;;;;;;5089818;28;20193;-84
2023/12/05 12:30:51;;;;;;;0.20;0.20;;;;;;;;;;5079694;28;20268;-84
2023/12/05 12:33:18;;;;;;;0.20;0.20;;;;;;;;;;5087237;28;20207;-85
2023/12/05 12:35:44;;;;;;;0.20;0.20;;;;;;;;;;5076673;28;20301;-85
2023/12/05 12:38:11;;;;;;;0.20;0.20;;;;;;;;;;5090601;28;20269;-84
2023/12/05 12:40:39;;;;;;;0.30;0.30;;;;;;;;;;5084635;28;20262;-85
2023/12/05 12:43:06;;;;;;;0.20;0.20;;;;;;;;;;5091366;28;20196;-83
2023/12/05 12:45:34;;;;;;;0.27;0.27;;;;;;;;;;5083191;28;20245;-85
2023/12/05 12:48:03;;;;;;;0.20;0.20;;;;;;;;;;5091706;28;20192;-85
2023/12/05 12:50:30;;;;;;;0.20;0.20;;;;;;;;;;5081342;28;20290;-86
2023/12/05 12:52:56;;;;;;;0.20;0.20;;;;;;;;;;5092993;28;20217;-85
2023/12/05 12:55:23;;;;;;;0.20;0.20;;;;;;;;;;5082460;28;20226;-86
2023/12/05 12:57:53;;;;;;;0.20;0.20;;;;;;;;;;5089850;28;20195;-85
2023/12/05 13:00:20;;;;;;;0.20;0.20;;;;;;;;;;5079635;28;20221;-86
2023/12/05 13:02:46;;;;;;;0.20;0.20;;;;;;;;;;5087740;28;20210;-85
2023/12/05 13:05:14;;;;;;;0.20;0.20;;;;;;;;;;5078183;28;20240;-84
2023/12/05 13:07:41;;;;;;;0.20;0.20;;;;;;;;;;5087849;28;20389;-86
2023/12/05 13:10:08;;;;;;;0.20;0.20;;;;;;;;;;5088808;28;20274;-83
2023/12/05 13:12:35;;;;;;;0.30;0.30;;;;;;;;;;5057697;28;20554;-86
2023/12/05 13:15:05;;;;;;;0.20;0.20;;;;;;;;;;5068678;28;20291;-86
2023/12/05 13:17:32;;;;;;;0.30;0.30;;;;;;;;;;5078265;28;20247;-85
2023/12/05 13:20:03;;;;;;;0.20;0.20;;;;;;;;;;5089068;28;20354;-82
2023/12/05 13:22:30;;;;;;;0.20;0.20;;;;;;;;;;5057477;28;20238;-85
2023/12/05 13:24:56;;;;;;;0.20;0.20;;;;;;;;;;5069247;28;20242;-84
2023/12/05 13:27:22;;;;;;;0.20;0.20;;;;;;;;;;5056778;28;20302;-85
2023/12/05 13:29:51;;;;;;;0.20;0.20;;;;;;;;;;5068147;28;20380;-87
2023/12/05 13:32:18;;;;;;;0.20;0.20;;;;;;;;;;5057209;28;20297;-87
2023/12/05 13:34:45;;;;;;;0.20;0.20;;;;;;;;;;5067942;28;20242;-85
2023/12/05 13:37:11;;;;;;;0.30;0.30;;;;;;;;;;5056649;28;20247;-86
2023/12/05 13:39:39;;;;;;;0.20;0.20;;;;;;;;;;5069543;28;20226;-86
2023/12/05 13:42:05;;;;;;;0.20;0.20;;;;;;;;;;5057368;28;20258;-85
2023/12/05 13:44:32;;;;;;;0.30;0.30;;;;;;;;;;5069471;28;20201;-85
2023/12/05 13:46:58;;;;;;;0.20;0.20;;;;;;;;;;5056805;28;20250;-86
2023/12/05 13:49:26;;;;;;;0.20;0.20;;;;;;;;;;5067067;28;20543;-86
2023/12/05 13:51:52;;;;;;;0.20;0.20;;;;;;;;;;5056005;28;20251;-86
2023/12/05 13:54:18;;;;;;;0.30;0.30;;;;;;;;;;5067316;28;20258;-87
2023/12/05 13:56:45;;;;;;;0.20;0.20;;;;;;;;;;5056758;28;20249;-86
2023/12/05 13:59:11;;;;;;;0.30;0.30;;;;;;;;;;5067330;28;20330;-86
2023/12/05 14:01:38;;;;;;;0.20;0.20;;;;;;;;;;5055344;28;20258;-84
2023/12/05 14:04:04;;;;;;;0.20;0.20;;;;;;;;;;5066678;28;20250;-85
2023/12/05 14:06:32;;;;;;;0.20;0.20;;;;;;;;;;5056805;28;20497;-86
2023/12/05 14:08:58;;;;;;;0.30;0.30;;;;;;;;;;5066448;28;20294;-87
2023/12/05 14:11:25;;;;;;;0.20;0.20;;;;;;;;;;5055400;28;20243;-86
2023/12/05 14:13:52;;;;;;;0.20;0.20;;;;;;;;;;5065692;28;20202;-85
2023/12/05 14:16:19;;;;;;;0.20;0.20;;;;;;;;;;5054909;28;20259;-86
2023/12/05 14:18:45;;;;;;;0.20;0.20;;;;;;;;;;5065320;28;20270;-85
2023/12/05 14:21:11;;;;;;;0.20;0.20;;;;;;;;;;5054983;28;20246;-85
2023/12/05 14:23:39;;;;;;;0.20;0.20;;;;;;;;;;5065848;28;20208;-86
2023/12/05 14:26:06;;;;;;;0.20;0.20;;;;;;;;;;5055031;28;20242;-86
2023/12/05 14:28:33;;;;;;;0.20;0.20;;;;;;;;;;5065867;28;20204;-85
2023/12/05 14:31:00;;;;;;;0.20;0.20;;;;;;;;;;5055105;28;20325;-86
2023/12/05 14:33:26;;;;;;;0.20;0.20;;;;;;;;;;5064983;28;20270;-85
2023/12/05 14:35:53;;;;;;;0.20;0.20;;;;;;;;;;5056012;28;20740;-85
2023/12/05 14:38:19;;;;;;;0.20;0.20;;;;;;;;;;5065542;28;20302;-85
2023/12/05 14:40:47;;;;;;;0.30;0.30;;;;;;;;;;5055399;28;20244;-85
2023/12/05 14:43:14;;;;;;;0.20;0.20;;;;;;;;;;5064637;28;20281;-86